CST,Max TemperatureF,Mean TemperatureF,Min TemperatureF,Max Dew PointF,MeanDew PointF,Min DewpointF,Max Humidity, Mean Humidity, Min Humidity, Max Sea Level PressureIn, Mean Sea Level PressureIn, Min Sea Level PressureIn, Max VisibilityMiles, Mean VisibilityMiles, Min VisibilityMiles, Max Wind SpeedMPH, Mean Wind SpeedMPH, Max Gust SpeedMPH,PrecipitationIn, CloudCover, Events, WindDirDegrees
2012-11-1,57,44,32,43,36,28,100,72,36,30.01,29.96,29.93,10,10,3,16,4,22,0.00,1,,339
2012-11-2,48,40,33,36,32,27,100,73,46,30.09,30.05,30.01,10,10,10,15,5,20,0.00,1,,78
2012-11-3,53,43,33,36,31,19,100,68,26,30.20,30.16,30.09,10,10,7,7,4,,0.00,3,,27
2012-11-4,50,42,35,45,40,34,100,88,66,30.21,30.15,30.08,10,10,7,9,3,,0.08,6,Rain,136
2012-11-5,44,40,37,43,41,37,100,97,87,30.16,30.11,30.06,10,8,4,13,8,17,0.11,8,Rain,114
2012-11-6,51,44,37,46,39,30,100,79,53,30.05,29.94,29.88,10,8,2,18,10,30,0.00,7,Rain,277
2012-11-7,44,37,30,36,32,27,87,73,57,30.15,30.10,29.99,10,10,10,16,7,26,0.00,5,,344
2012-11-8,60,44,28,37,33,27,93,67,36,30.12,30.00,29.91,10,10,10,16,6,23,0.00,0,,154
2012-11-9,59,48,37,48,41,34,87,74,59,29.94,29.86,29.78,10,10,10,12,3,18,0.00,2,,111
2012-11-10,75,64,53,55,52,46,88,64,46,29.78,29.66,29.57,10,10,10,25,12,33,0.00,0,,172
2012-11-11,68,46,23,54,29,12,93,76,49,30.12,29.87,29.65,10,9,2,23,15,37,0.82,6,Rain,281
2012-11-12,35,28,21,18,15,10,74,60,35,30.38,30.22,30.12,10,10,10,22,10,32,0.00,1,,268
2012-11-13,48,32,17,28,21,14,93,61,27,30.42,30.37,30.31,10,10,7,10,3,,0.00,0,,158
2012-11-14,57,45,33,30,25,16,81,51,20,30.34,30.29,30.23,10,10,10,16,6,22,0.00,0,,182
2012-11-15,57,46,35,34,29,27,81,57,33,30.41,30.28,30.23,10,10,10,12,6,,0.00,0,,279
2012-11-16,51,38,24,30,27,19,86,69,38,30.47,30.41,30.36,10,10,7,7,2,,0.00,0,,296
2012-11-17,60,44,28,34,28,23,93,60,27,30.37,30.32,30.26,10,9,5,18,5,24,0.00,0,,157
2012-11-18,60,48,37,34,28,27,70,46,27,30.27,30.20,30.14,10,10,10,15,8,20,0.00,3,,158
2012-11-19,60,50,39,43,39,34,87,68,52,30.17,30.07,30.01,10,10,10,15,7,18,0.05,1,Rain,185
2012-11-20,57,45,33,41,36,28,93,75,51,30.19,30.15,30.05,10,8,3,8,4,,0.00,0,,305
2012-11-21,69,50,32,43,36,28,93,60,33,30.16,30.04,29.89,10,8,3,18,7,25,0.00,0,,178
2012-11-22,64,50,37,45,36,23,70,53,31,30.14,29.88,29.72,10,10,10,23,14,32,0.01,0,,243
2012-11-23,37,29,19,19,12,9,68,51,38,30.39,30.32,30.15,10,10,10,28,18,41,0.00,3,,309
2012-11-24,35,26,17,19,14,10,74,61,44,30.37,30.13,29.84,10,10,10,13,6,18,0.00,0,,188
2012-11-25,37,34,30,25,22,19,65,59,48,30.17,29.98,29.83,10,10,10,13,5,21,0.00,2,,337
2012-11-26,32,22,12,21,10,1,74,54,34,30.44,30.33,30.17,10,10,10,16,8,22,0.00,3,,352
2012-11-27,35,22,10,18,9,3,85,57,33,30.43,30.31,30.19,10,10,10,14,4,17,0.00,0,,211
2012-11-28,44,30,15,25,19,10,93,64,37,30.40,30.28,30.15,10,10,7,9,3,,0.00,0,,178
2012-11-29,53,40,26,34,28,21,87,70,47,30.14,30.03,29.96,10,10,7,9,4,,0.00,0,,168
2012-11-30,51,37,23,36,29,19,93,77,54,30.07,30.03,29.96,10,8,4,6,1,,0.00,0,,64